createdAt,value
2023-04-18T00:01:08.105Z,99836.03
2023-04-18T00:05:12.345Z,99841.28
2023-04-18T00:09:15.518Z,99837.78
2023-04-18T00:13:19.963Z,99839.53
2023-04-18T00:17:23.510Z,99837.78
2023-04-18T00:21:26.776Z,99845.69
2023-04-18T00:25:29.838Z,99841.31
2023-04-18T00:29:34.410Z,99843.09
2023-04-18T00:33:37.428Z,99840.44
2023-04-18T00:37:40.622Z,99836.03
2023-04-18T00:41:44.587Z,99834.25
2023-04-18T00:45:49.040Z,99839.53
2023-04-18T00:49:52.575Z,99847.47
2023-04-18T00:53:55.755Z,99842.19
2023-04-18T00:57:59.218Z,99834.25
2023-04-18T01:02:05.097Z,99836.03
2023-04-18T01:06:10.231Z,99839.53
2023-04-18T01:10:13.337Z,99838.69
2023-04-18T01:14:20.952Z,99837.81
2023-04-18T01:18:25.580Z,99832.53
2023-04-18T01:22:29.425Z,99840.44
2023-04-18T01:26:33.930Z,99833.44
2023-04-18T01:30:41.093Z,99836.06
2023-04-18T01:34:44.187Z,99824.63
2023-04-18T01:38:47.220Z,99835.16
2023-04-18T01:42:51.809Z,99836.94
2023-04-18T01:46:54.904Z,99830.81
2023-04-18T01:50:58.023Z,99838.72
2023-04-18T01:55:02.171Z,99837.84
2023-04-18T01:59:06.652Z,99839.63
2023-04-18T02:03:09.820Z,99841.34
2023-04-18T02:07:12.946Z,99837.84
2023-04-18T02:11:16.302Z,99835.22
2023-04-18T02:15:21.008Z,99840.47
2023-04-18T02:19:24.321Z,99842.25
2023-04-18T02:23:27.514Z,99838.75
2023-04-18T02:27:31.798Z,99836.09
2023-04-18T02:31:38.412Z,99839.63
2023-04-18T02:35:42.328Z,99841.38
2023-04-18T02:39:45.544Z,99844.03
2023-04-18T02:43:48.665Z,99844.03
2023-04-18T02:47:56.190Z,99844.88
2023-04-18T02:51:59.914Z,99844.88
2023-04-18T02:56:03.422Z,99847.56
2023-04-18T03:00:26.551Z,99841.38
2023-04-18T03:04:49.408Z,99843.16
2023-04-18T03:08:52.709Z,99847.56
2023-04-18T03:12:56.065Z,99839.66
2023-04-18T03:17:00.032Z,99853.69
2023-04-18T03:21:12.936Z,99850.19
2023-04-18T03:25:19.189Z,99845.78
2023-04-18T03:29:27.552Z,99852.84
2023-04-18T03:33:30.909Z,99851.97
2023-04-18T03:37:44.628Z,99846.69
2023-04-18T03:41:53.738Z,99851.06
2023-04-18T03:45:57.339Z,99854.59
2023-04-18T03:50:01.455Z,99851.06
2023-04-18T03:54:06.960Z,99854.59
2023-04-18T03:58:10.406Z,99859.00
2023-04-18T04:02:15.026Z,99862.50
2023-04-18T04:06:18.745Z,99865.16
2023-04-18T04:10:23.492Z,99873.94
2023-04-18T04:14:27.673Z,99869.56
2023-04-18T04:18:31.320Z,99871.31
2023-04-18T04:22:37.465Z,99880.97
2023-04-18T04:26:43.184Z,99876.59
2023-04-18T04:30:51.238Z,99875.69
2023-04-18T04:34:56.314Z,99880.97
2023-04-18T04:38:59.792Z,99879.22
2023-04-18T04:43:15.727Z,99887.13
2023-04-18T04:47:21.126Z,99885.38
2023-04-18T04:51:24.922Z,99898.56
2023-04-18T04:55:28.116Z,99898.56
2023-04-18T04:59:33.174Z,99899.44
2023-04-18T05:03:37.596Z,99905.59
2023-04-18T05:07:41.022Z,99899.44
2023-04-18T05:11:44.119Z,99903.84
2023-04-18T05:15:48.614Z,99903.84
2023-04-18T05:19:51.927Z,99904.72
2023-04-18T05:23:54.928Z,99906.47
2023-04-18T05:27:58.086Z,99912.63
2023-04-18T05:32:02.793Z,99913.50
2023-04-18T05:36:07.684Z,99916.16
2023-04-18T05:40:12.127Z,99912.63
2023-04-18T05:44:16.032Z,99915.25
2023-04-18T05:48:21.433Z,99920.53
2023-04-18T05:52:26.042Z,99917.03
2023-04-18T05:56:35.612Z,99903.81
2023-04-18T06:00:48.304Z,99907.38
2023-04-18T06:04:53.009Z,99914.38
2023-04-18T06:08:56.268Z,99911.75
2023-04-18T06:12:59.363Z,99909.09
2023-04-18T06:17:02.525Z,99915.28
2023-04-18T06:21:07.325Z,99915.28
2023-04-18T06:25:11.036Z,99917.03
2023-04-18T06:29:14.164Z,99923.19
2023-04-18T06:33:17.265Z,99927.56
2023-04-18T06:37:22.030Z,99924.94
2023-04-18T06:41:25.134Z,99930.22
2023-04-18T06:45:28.188Z,99931.09
2023-04-18T06:49:31.272Z,99931.09
2023-04-18T06:53:35.686Z,99926.69
2023-04-18T06:57:38.981Z,99931.97
2023-04-18T07:01:42.697Z,99934.63
2023-04-18T07:05:46.044Z,99941.63
2023-04-18T07:09:50.648Z,99939.88
2023-04-18T07:13:53.709Z,99950.44
2023-04-18T07:17:56.852Z,99945.16
2023-04-18T07:22:00.052Z,99946.94
2023-04-18T07:26:05.862Z,99949.53
2023-04-18T07:30:10.142Z,99956.59
2023-04-18T07:34:14.436Z,99948.66
2023-04-18T07:38:18.409Z,99953.94
2023-04-18T07:42:22.891Z,99955.69
2023-04-18T07:46:26.216Z,99963.63
2023-04-18T07:50:29.722Z,99959.22
2023-04-18T07:54:33.039Z,99961.84
2023-04-18T07:58:37.561Z,99961.84
2023-04-18T08:02:41.727Z,99966.22
2023-04-18T08:06:44.878Z,99961.84
2023-04-18T08:10:47.869Z,99965.38
2023-04-18T08:14:52.275Z,99972.38
2023-04-18T08:18:55.334Z,99973.25
2023-04-18T08:23:07.414Z,99976.78
2023-04-18T08:27:12.914Z,99981.16
2023-04-18T08:31:17.576Z,99973.22
2023-04-18T08:35:20.737Z,99979.38
2023-04-18T08:39:25.229Z,99971.44
2023-04-18T08:43:30.211Z,99975.78
2023-04-18T08:47:36.229Z,99979.28
2023-04-18T08:51:41.558Z,99985.47
2023-04-18T08:55:44.624Z,99980.16
2023-04-18T08:59:49.695Z,99988.06
2023-04-18T09:03:55.759Z,99988.00
2023-04-18T09:07:58.853Z,99995.94
2023-04-18T09:12:08.782Z,99997.72
2023-04-18T09:16:11.891Z,100007.38
2023-04-18T09:20:30.774Z,99996.78
2023-04-18T09:24:34.312Z,100005.59
2023-04-18T09:28:37.628Z,99994.09
2023-04-18T09:32:40.887Z,99995.81
2023-04-18T09:36:45.574Z,99998.41
2023-04-18T09:40:48.646Z,99994.78
2023-04-18T09:45:06.560Z,99985.94
2023-04-18T09:49:10.933Z,99981.44
2023-04-18T09:53:20.906Z,99989.34
2023-04-18T09:57:28.737Z,99993.75
2023-04-18T10:01:32.674Z,99989.38
2023-04-18T10:05:37.373Z,99996.47
2023-04-18T10:09:44.724Z,99988.53
2023-04-18T10:13:50.175Z,99994.75
2023-04-18T10:18:04.497Z,100006.19
2023-04-18T10:22:10.482Z,99997.28
2023-04-18T10:26:15.043Z,99994.59
2023-04-18T10:30:18.926Z,100000.69
2023-04-18T10:34:22.230Z,99991.78
2023-04-18T10:38:26.418Z,99989.06
2023-04-18T10:43:02.215Z,99991.69
2023-04-18T10:47:33.002Z,99996.88
2023-04-18T10:51:36.094Z,99992.44
2023-04-18T10:55:43.029Z,99990.59
2023-04-18T10:59:50.469Z,99993.22
2023-04-18T11:03:54.400Z,99984.31
2023-04-18T11:07:57.514Z,99986.03
2023-04-18T11:12:09.017Z,99986.84
2023-04-18T11:16:27.120Z,99980.69
2023-04-18T11:20:31.243Z,99979.75
2023-04-18T11:24:35.182Z,99976.22
2023-04-18T11:28:38.241Z,99978.88
2023-04-18T11:32:42.833Z,99978.78
2023-04-18T11:36:50.095Z,99978.72
2023-04-18T11:40:53.155Z,99982.13
2023-04-18T11:44:56.376Z,99985.69
2023-04-18T11:49:00.773Z,99982.16
2023-04-18T11:53:03.912Z,99982.31
2023-04-18T11:57:07.695Z,99985.88
2023-04-18T12:01:21.009Z,99985.88
2023-04-18T12:05:36.174Z,99988.50
2023-04-18T12:09:40.153Z,99978.78
2023-04-18T12:13:47.260Z,99985.81
2023-04-18T12:22:00.496Z,99994.47
2023-04-18T12:26:04.922Z,100002.53
2023-04-18T12:30:09.864Z,99996.41
2023-04-18T12:34:13.690Z,100007.06
2023-04-18T12:38:21.387Z,100002.63
2023-04-18T12:42:24.471Z,100001.72
2023-04-18T12:46:27.674Z,100002.59
2023-04-18T12:50:30.822Z,99997.34
2023-04-18T12:54:37.920Z,100001.78
2023-04-18T12:58:41.369Z,100000.88
2023-04-18T13:02:45.967Z,99998.16
2023-04-18T13:06:49.943Z,99999.03
2023-04-18T13:10:54.459Z,99999.81
2023-04-18T13:14:57.865Z,99994.47
2023-04-18T13:19:01.026Z,99990.94
2023-04-18T13:23:04.898Z,99998.91
2023-04-18T13:27:11.412Z,100001.63
2023-04-18T13:31:16.801Z,99993.69
2023-04-18T13:35:20.249Z,99995.59
2023-04-18T13:39:24.373Z,99986.72
2023-04-18T13:43:28.892Z,99985.88
2023-04-18T13:47:32.009Z,99993.91
2023-04-18T13:51:35.762Z,99990.44
2023-04-18T13:55:38.931Z,99989.59
2023-04-18T13:59:43.499Z,99990.47
2023-04-18T14:03:47.515Z,99994.94
2023-04-18T14:07:50.676Z,100000.22
2023-04-18T14:11:53.925Z,99998.53
2023-04-18T14:15:58.363Z,100000.25
2023-04-18T14:20:01.886Z,99999.38
2023-04-18T14:24:08.044Z,99993.16
2023-04-18T14:28:12.792Z,99996.72
2023-04-18T14:32:17.325Z,99995.84
2023-04-18T14:36:20.566Z,100005.56
2023-04-18T14:40:23.956Z,100003.00
2023-04-18T14:44:26.991Z,100004.72
2023-04-18T14:48:31.454Z,100000.34
2023-04-18T14:52:34.569Z,99996.84
2023-04-18T14:56:37.628Z,100005.56
2023-04-18T15:00:40.643Z,100005.66
2023-04-18T15:04:45.279Z,99999.50
2023-04-18T15:08:48.459Z,99999.53
2023-04-18T15:12:52.396Z,100001.31
2023-04-18T15:16:55.499Z,99996.06
2023-04-18T15:21:00.660Z,99998.81
2023-04-18T15:25:04.369Z,99993.50
2023-04-18T15:29:07.383Z,100000.59
2023-04-18T15:33:11.024Z,99997.97
2023-04-18T15:37:15.758Z,99992.72
2023-04-18T15:41:18.805Z,99996.34
2023-04-18T15:45:22.110Z,100000.81
2023-04-18T15:49:25.331Z,99997.31
2023-04-18T15:53:29.726Z,99992.97
2023-04-18T15:57:33.080Z,99994.75
2023-04-18T16:01:36.155Z,99990.41
2023-04-18T16:05:39.206Z,99987.78
2023-04-18T16:09:43.568Z,99994.84
2023-04-18T16:13:46.640Z,99995.78
2023-04-18T16:17:49.700Z,100001.94
2023-04-18T16:21:52.929Z,99995.78
2023-04-18T16:25:57.558Z,99992.22
2023-04-18T16:30:00.677Z,99998.38
2023-04-18T16:34:04.277Z,99987.84
2023-04-18T16:38:07.641Z,99994.88
2023-04-18T16:42:14.810Z,99999.28
2023-04-18T16:46:19.066Z,100005.50
2023-04-18T16:50:23.860Z,99998.44
2023-04-18T16:54:26.931Z,100001.09
2023-04-18T16:58:31.414Z,100004.66
2023-04-18T17:02:34.779Z,100001.09
2023-04-18T17:06:38.042Z,100007.31
2023-04-18T17:10:41.135Z,100008.22
2023-04-18T17:14:45.546Z,100009.97
2023-04-18T17:18:48.629Z,100008.22
2023-04-18T17:22:51.673Z,100013.53
2023-04-18T17:26:56.593Z,100024.09
2023-04-18T17:31:01.957Z,100032.06
2023-04-18T17:35:06.480Z,100032.09
2023-04-18T17:39:09.879Z,100034.72
2023-04-18T17:43:13.037Z,100045.31
2023-04-18T17:47:17.492Z,100043.53
2023-04-18T17:51:21.010Z,100043.56
2023-04-18T17:55:24.162Z,100045.31
2023-04-18T17:59:28.233Z,100049.72
2023-04-18T18:03:36.345Z,100046.22
2023-04-18T18:07:41.194Z,100052.38
2023-04-18T18:11:44.639Z,100051.50
2023-04-18T18:15:47.667Z,100050.66
2023-04-18T18:20:08.576Z,100054.19
2023-04-18T18:24:12.196Z,100059.47
2023-04-18T18:28:15.663Z,100060.34
2023-04-18T18:32:18.700Z,100055.94
2023-04-18T18:36:23.081Z,100067.38
2023-04-18T18:40:26.153Z,100068.28
2023-04-18T18:44:29.244Z,100066.50
2023-04-18T18:48:32.842Z,100057.72
2023-04-18T18:52:39.535Z,100066.53
2023-04-18T18:56:42.774Z,100066.53
2023-04-18T19:00:47.375Z,100065.66
2023-04-18T19:04:50.513Z,100067.44
2023-04-18T19:08:55.091Z,100064.78
2023-04-18T19:12:58.124Z,100066.56
2023-04-18T19:17:01.155Z,100069.19
2023-04-18T19:21:04.603Z,100071.84
2023-04-18T19:25:10.559Z,100070.97
2023-04-18T19:29:14.493Z,100072.72
2023-04-18T19:33:17.788Z,100068.28
2023-04-18T19:37:21.119Z,100078.00
2023-04-18T19:41:26.026Z,100086.81
2023-04-18T19:45:29.044Z,100074.47
2023-04-18T19:49:32.113Z,100070.06
2023-04-18T19:53:35.550Z,100073.63
2023-04-18T19:57:41.626Z,100077.13
2023-04-18T20:01:45.101Z,100072.72
2023-04-18T20:05:48.267Z,100072.75
2023-04-18T20:09:53.033Z,100087.69
2023-04-18T20:13:57.543Z,100076.22
2023-04-18T20:18:00.592Z,100084.19
2023-04-18T20:22:03.692Z,100074.50
2023-04-18T20:26:07.957Z,100073.63
2023-04-18T20:30:13.286Z,100080.66
2023-04-18T20:34:16.334Z,100076.25
2023-04-18T20:38:23.606Z,100089.47
2023-04-18T20:42:28.407Z,100090.34
2023-04-18T20:46:33.057Z,100094.72
2023-04-18T20:50:36.350Z,100092.09
2023-04-18T20:54:39.609Z,100095.63
2023-04-18T20:58:43.158Z,100098.25
2023-04-18T21:02:47.783Z,100100.03
2023-04-18T21:06:50.887Z,100092.09
2023-04-18T21:10:54.306Z,100096.47
2023-04-18T21:14:57.508Z,100104.44
2023-04-18T21:19:01.955Z,100102.66
2023-04-18T21:23:05.194Z,100102.66
2023-04-18T21:27:08.652Z,100096.47
2023-04-18T21:31:11.837Z,100107.94
2023-04-18T21:35:19.386Z,100105.28
2023-04-18T21:39:23.396Z,100099.13
2023-04-18T21:43:26.498Z,100096.50
2023-04-18T21:47:29.630Z,100091.19
2023-04-18T21:51:34.415Z,100092.97
2023-04-18T21:55:37.968Z,100101.78
2023-04-18T21:59:40.988Z,100106.19
2023-04-18T22:03:44.321Z,100092.06
2023-04-18T22:07:57.598Z,100093.81
2023-04-18T22:12:03.740Z,100086.81
2023-04-18T22:16:08.381Z,100088.56
2023-04-18T22:20:12.965Z,100086.78
2023-04-18T22:24:18.375Z,100095.59
2023-04-18T22:28:23.511Z,100085.88
2023-04-18T22:32:26.782Z,100086.78
2023-04-18T22:36:29.892Z,100086.75
2023-04-18T22:40:34.340Z,100077.97
2023-04-18T22:44:37.563Z,100081.47
2023-04-18T22:48:40.554Z,100080.59
2023-04-18T22:52:43.577Z,100074.44
2023-04-18T22:56:48.516Z,100077.06
2023-04-18T23:00:51.657Z,100075.31
2023-04-18T23:04:54.822Z,100074.41
2023-04-18T23:08:57.949Z,100076.19
2023-04-18T23:13:02.422Z,100059.47
2023-04-18T23:17:05.674Z,100060.31
2023-04-18T23:21:08.722Z,100069.13
2023-04-18T23:25:11.802Z,100060.31
2023-04-18T23:29:16.611Z,100061.19
2023-04-18T23:33:20.125Z,100062.09
2023-04-18T23:37:23.399Z,100054.16
2023-04-18T23:41:26.461Z,100054.16
2023-04-18T23:45:31.257Z,100043.59
2023-04-18T23:49:34.345Z,100047.13
2023-04-18T23:53:37.352Z,100040.94
2023-04-18T23:57:40.590Z,100040.91
